createdAt,value
2022-08-16T00:00:20.170Z,59.67
2022-08-16T00:00:38.421Z,59.75
2022-08-16T00:00:52.217Z,59.56
2022-08-16T00:01:04.341Z,59.25
2022-08-16T00:01:20.367Z,58.79
2022-08-16T00:01:34.170Z,58.83
2022-08-16T00:01:48.701Z,58.97
2022-08-16T00:02:01.747Z,58.76
2022-08-16T00:02:25.114Z,58.84
2022-08-16T00:02:39.407Z,58.75
2022-08-16T00:02:54.331Z,58.77
2022-08-16T00:03:07.501Z,58.79
2022-08-16T00:03:25.615Z,58.84
2022-08-16T00:03:37.953Z,58.52
2022-08-16T00:03:50.051Z,58.33
2022-08-16T00:04:02.085Z,58.72
2022-08-16T00:04:17.994Z,58.86
2022-08-16T00:04:30.172Z,59.11
2022-08-16T00:04:42.211Z,58.71
2022-08-16T00:04:54.583Z,58.57
2022-08-16T00:05:13.759Z,59.21
2022-08-16T00:05:27.594Z,59.11
2022-08-16T00:05:48.602Z,58.96
2022-08-16T00:06:00.966Z,58.98
2022-08-16T00:06:15.425Z,59.00
2022-08-16T00:06:29.280Z,58.83
2022-08-16T00:06:41.548Z,58.54
2022-08-16T00:06:56.258Z,58.20
2022-08-16T00:07:08.218Z,58.35
2022-08-16T00:07:21.955Z,58.19
2022-08-16T00:07:33.991Z,58.39
2022-08-16T00:07:47.143Z,58.39
2022-08-16T00:07:59.629Z,58.17
2022-08-16T00:08:36.650Z,58.10
2022-08-16T00:08:50.008Z,58.46
2022-08-16T00:09:05.234Z,58.44
2022-08-16T00:09:17.581Z,58.48
2022-08-16T00:09:29.590Z,58.36
2022-08-16T00:09:41.833Z,58.40
2022-08-16T00:09:54.102Z,58.61
2022-08-16T00:10:09.426Z,58.63
2022-08-16T00:10:33.911Z,58.51
2022-08-16T00:10:46.877Z,58.59
2022-08-16T00:10:58.807Z,58.56
2022-08-16T00:11:15.270Z,58.48
2022-08-16T00:11:28.004Z,58.73
2022-08-16T00:11:42.032Z,58.63
2022-08-16T00:11:55.511Z,58.98
2022-08-16T00:12:07.670Z,58.71
2022-08-16T00:12:19.634Z,58.65
2022-08-16T00:12:33.555Z,58.93
2022-08-16T00:12:47.049Z,59.10
2022-08-16T00:13:06.718Z,58.72
2022-08-16T00:13:19.311Z,58.45
2022-08-16T00:13:33.694Z,58.91
2022-08-16T00:13:55.496Z,59.40
2022-08-16T00:14:12.715Z,59.62
2022-08-16T00:14:30.390Z,59.62
2022-08-16T00:14:42.969Z,59.33
2022-08-16T00:14:57.307Z,59.29
2022-08-16T00:15:16.912Z,59.46
2022-08-16T00:15:52.026Z,59.15
2022-08-16T00:17:01.776Z,59.22
2022-08-16T00:17:05.595Z,59.08
2022-08-16T00:17:18.299Z,59.23
2022-08-16T00:17:55.904Z,59.31
2022-08-16T00:18:04.748Z,59.13
2022-08-16T00:18:22.339Z,59.00
2022-08-16T00:18:42.103Z,59.39
2022-08-16T00:18:54.044Z,59.41
2022-08-16T00:19:06.431Z,59.09
2022-08-16T00:19:22.648Z,59.10
2022-08-16T00:19:41.063Z,58.64
2022-08-16T00:19:55.046Z,58.82
2022-08-16T00:20:12.333Z,59.07
2022-08-16T00:20:26.024Z,58.84
2022-08-16T00:20:40.691Z,58.94
2022-08-16T00:20:53.074Z,59.30
2022-08-16T00:21:05.228Z,58.78
2022-08-16T00:21:18.076Z,58.74
2022-08-16T00:21:30.466Z,58.80
2022-08-16T00:21:44.317Z,58.72
2022-08-16T00:22:03.185Z,58.46
2022-08-16T00:22:20.724Z,58.43
2022-08-16T00:22:39.225Z,58.19
2022-08-16T00:22:54.981Z,58.51
2022-08-16T00:23:07.662Z,59.17
2022-08-16T00:23:24.463Z,58.63
2022-08-16T00:23:46.702Z,58.35
2022-08-16T00:23:59.273Z,58.33
2022-08-16T00:24:32.285Z,57.86
2022-08-16T00:24:46.729Z,58.08
2022-08-16T00:24:58.932Z,58.16
2022-08-16T00:25:13.993Z,58.37
2022-08-16T00:26:34.592Z,57.85
2022-08-16T00:26:36.229Z,58.44
2022-08-16T00:26:36.739Z,57.86
2022-08-16T00:26:49.570Z,57.94
2022-08-16T00:27:04.195Z,57.77
2022-08-16T00:27:17.518Z,57.88
2022-08-16T00:27:30.854Z,57.88
2022-08-16T00:27:43.299Z,57.85
2022-08-16T00:28:00.396Z,57.93
2022-08-16T00:28:13.766Z,57.82
2022-08-16T00:28:28.623Z,57.61
2022-08-16T00:28:41.887Z,58.09
2022-08-16T00:28:58.123Z,58.10
2022-08-16T00:29:15.763Z,57.62
2022-08-16T00:29:29.934Z,57.77
2022-08-16T00:29:42.367Z,57.82
2022-08-16T00:30:08.989Z,58.09
2022-08-16T00:30:29.017Z,58.01
2022-08-16T00:30:41.404Z,57.93
2022-08-16T00:30:53.829Z,58.00
2022-08-16T00:31:05.866Z,57.86
2022-08-16T00:31:24.277Z,57.98
2022-08-16T00:31:59.623Z,57.68
2022-08-16T00:32:18.137Z,57.78
2022-08-16T00:32:32.733Z,57.91
2022-08-16T00:32:48.246Z,58.19
2022-08-16T00:33:02.215Z,57.75
2022-08-16T00:33:14.397Z,58.05
2022-08-16T00:33:26.370Z,57.94
2022-08-16T00:33:38.340Z,57.89
2022-08-16T00:33:50.471Z,57.86
2022-08-16T00:34:04.496Z,57.92
2022-08-16T00:34:18.427Z,58.16
2022-08-16T00:34:52.452Z,57.92
2022-08-16T00:35:03.807Z,57.99
2022-08-16T00:35:29.313Z,57.90
2022-08-16T00:35:46.859Z,58.08
2022-08-16T00:36:01.846Z,57.86
2022-08-16T00:36:13.872Z,58.06
2022-08-16T00:36:25.890Z,58.25
2022-08-16T00:36:37.833Z,57.91
2022-08-16T00:36:59.355Z,57.73
2022-08-16T00:37:18.328Z,58.21
2022-08-16T00:37:58.820Z,58.02
2022-08-16T00:38:41.349Z,58.11
2022-08-16T00:38:43.259Z,58.23
2022-08-16T00:38:56.229Z,58.18
2022-08-16T00:39:08.434Z,57.99
2022-08-16T00:39:27.637Z,58.14
2022-08-16T00:39:43.010Z,58.19
2022-08-16T00:39:57.997Z,58.05
2022-08-16T00:40:33.411Z,57.88
2022-08-16T00:40:53.915Z,57.68
2022-08-16T00:41:07.284Z,57.87
2022-08-16T00:41:21.088Z,58.00
2022-08-16T00:41:34.455Z,58.14
2022-08-16T00:41:50.511Z,57.71
2022-08-16T00:42:02.775Z,58.15
2022-08-16T00:42:30.144Z,57.70
2022-08-16T00:42:43.601Z,58.23
2022-08-16T00:42:58.267Z,58.25
2022-08-16T00:43:19.390Z,57.61
2022-08-16T00:43:43.520Z,57.82
2022-08-16T00:43:55.721Z,57.97
2022-08-16T00:44:11.100Z,57.90
2022-08-16T00:44:23.493Z,58.01
2022-08-16T00:44:54.505Z,57.91
2022-08-16T00:45:36.716Z,57.71
2022-08-16T00:46:35.509Z,57.99
2022-08-16T00:47:06.043Z,57.95
2022-08-16T00:47:19.734Z,57.59
2022-08-16T00:47:35.317Z,57.84
2022-08-16T00:47:49.851Z,57.58
2022-08-16T00:48:30.495Z,57.87
2022-08-16T00:48:43.989Z,57.84
2022-08-16T00:48:57.593Z,58.23
2022-08-16T00:49:19.574Z,57.90
2022-08-16T00:49:39.461Z,58.00
2022-08-16T00:49:57.060Z,57.42
2022-08-16T00:50:11.768Z,57.67
2022-08-16T00:50:35.920Z,57.89
2022-08-16T00:50:48.580Z,58.05
2022-08-16T00:51:08.022Z,57.91
2022-08-16T00:51:23.619Z,58.19
2022-08-16T00:51:36.079Z,58.20
2022-08-16T00:51:55.101Z,57.68
2022-08-16T00:52:29.511Z,57.60
2022-08-16T00:52:50.298Z,57.95
2022-08-16T00:53:11.453Z,57.53
2022-08-16T00:53:23.699Z,57.97
2022-08-16T00:53:35.790Z,57.96
2022-08-16T00:53:49.503Z,58.21
2022-08-16T00:54:03.160Z,58.08
2022-08-16T00:54:16.844Z,57.95
2022-08-16T00:54:33.823Z,58.31
2022-08-16T00:54:46.082Z,57.96
2022-08-16T00:55:00.461Z,58.20
2022-08-16T00:55:12.751Z,58.02
2022-08-16T00:55:28.206Z,58.05
2022-08-16T00:55:54.209Z,58.00
2022-08-16T00:56:11.292Z,58.03
2022-08-16T00:56:56.570Z,58.02
2022-08-16T00:57:11.567Z,57.88
2022-08-16T00:57:23.921Z,58.26
2022-08-16T00:57:58.926Z,57.97
2022-08-16T00:58:12.910Z,58.38
2022-08-16T00:58:34.581Z,58.41
2022-08-16T00:58:48.358Z,58.00
2022-08-16T00:59:02.234Z,58.36
2022-08-16T00:59:16.930Z,58.21
2022-08-16T00:59:34.301Z,58.30
2022-08-16T00:59:58.681Z,58.37
2022-08-16T01:00:11.900Z,57.92
2022-08-16T01:00:33.489Z,58.17
2022-08-16T01:00:54.379Z,58.20
2022-08-16T01:01:08.782Z,58.35
2022-08-16T01:01:23.152Z,58.09
2022-08-16T01:01:36.098Z,58.48
2022-08-16T01:01:48.089Z,58.19
2022-08-16T01:02:30.720Z,58.38
2022-08-16T01:02:34.026Z,58.35
2022-08-16T01:02:48.731Z,58.35
2022-08-16T01:03:08.138Z,58.36
2022-08-16T01:03:30.382Z,58.39
2022-08-16T01:03:47.504Z,58.28
2022-08-16T01:04:01.763Z,58.49
2022-08-16T01:04:29.245Z,58.52
2022-08-16T01:04:42.882Z,58.55
2022-08-16T01:05:14.841Z,58.40
2022-08-16T01:05:28.758Z,58.91
2022-08-16T01:05:42.208Z,58.93
2022-08-16T01:05:55.183Z,58.78
2022-08-16T01:06:40.126Z,58.87
2022-08-16T01:06:49.231Z,59.17
2022-08-16T01:07:11.539Z,59.66
2022-08-16T01:07:29.850Z,59.50
2022-08-16T01:08:35.455Z,59.45
2022-08-16T01:08:37.000Z,59.35
2022-08-16T01:08:52.446Z,59.42
2022-08-16T01:09:06.761Z,59.34
2022-08-16T01:09:20.780Z,59.59
2022-08-16T01:09:42.979Z,59.42
2022-08-16T01:09:55.394Z,59.64
2022-08-16T01:10:15.820Z,59.54
2022-08-16T01:10:33.589Z,59.64
2022-08-16T01:10:46.349Z,59.63
2022-08-16T01:11:00.065Z,59.65
2022-08-16T01:11:14.668Z,59.75
2022-08-16T01:11:29.425Z,59.44
2022-08-16T01:11:51.750Z,59.42
2022-08-16T01:12:10.660Z,59.73
2022-08-16T01:12:26.680Z,59.52
2022-08-16T01:12:38.852Z,59.68
2022-08-16T01:12:51.398Z,59.62
2022-08-16T01:13:12.400Z,59.88
2022-08-16T01:13:30.966Z,59.45
2022-08-16T01:13:44.303Z,59.35
2022-08-16T01:14:04.510Z,59.45
2022-08-16T01:14:29.847Z,59.26
2022-08-16T01:14:53.288Z,59.56
2022-08-16T01:15:06.070Z,59.46
2022-08-16T01:15:20.415Z,59.67
2022-08-16T01:15:43.091Z,59.39
2022-08-16T01:16:05.848Z,59.73
2022-08-16T01:16:26.659Z,59.79
2022-08-16T01:16:42.802Z,59.53
2022-08-16T01:16:56.850Z,59.48
2022-08-16T01:17:09.826Z,59.48
2022-08-16T01:17:24.348Z,59.67
2022-08-16T01:17:37.537Z,59.59
2022-08-16T01:17:55.778Z,59.46
2022-08-16T01:18:39.918Z,59.74
2022-08-16T01:19:09.701Z,59.74
2022-08-16T01:19:32.650Z,60.11
2022-08-16T01:19:52.392Z,59.84
2022-08-16T01:20:23.813Z,60.11
2022-08-16T01:20:43.599Z,60.07
2022-08-16T01:21:12.204Z,60.23
2022-08-16T01:21:47.894Z,60.04
2022-08-16T01:22:48.193Z,60.12
2022-08-16T01:22:52.469Z,60.16
2022-08-16T01:23:58.628Z,60.30
2022-08-16T01:24:44.471Z,60.07
2022-08-16T01:24:57.655Z,60.03
2022-08-16T01:25:24.059Z,60.28
2022-08-16T01:26:00.303Z,60.33
2022-08-16T01:26:34.567Z,60.40
2022-08-16T01:26:50.175Z,60.27
2022-08-16T01:27:34.738Z,60.07
2022-08-16T01:27:54.588Z,60.30
2022-08-16T01:28:20.128Z,60.34
2022-08-16T01:28:35.793Z,60.47
2022-08-16T01:28:51.520Z,60.75
2022-08-16T01:29:09.915Z,60.53
2022-08-16T01:29:56.636Z,60.89
2022-08-16T01:30:19.406Z,60.53
2022-08-16T01:30:36.756Z,60.31
2022-08-16T01:30:58.281Z,60.36
2022-08-16T01:31:11.363Z,60.47
2022-08-16T01:31:30.983Z,60.65
2022-08-16T01:31:43.506Z,60.82
2022-08-16T01:31:55.576Z,60.79
2022-08-16T01:32:09.854Z,60.65
2022-08-16T01:32:33.554Z,60.50
2022-08-16T01:32:47.061Z,60.64
2022-08-16T01:33:15.724Z,60.47
2022-08-16T01:33:33.354Z,60.92
2022-08-16T01:33:49.736Z,60.45
2022-08-16T01:34:02.494Z,60.70
2022-08-16T01:34:24.999Z,60.53
2022-08-16T01:34:47.138Z,60.87
2022-08-16T01:34:59.666Z,60.75
2022-08-16T01:35:18.149Z,60.81
2022-08-16T01:35:39.363Z,60.78
2022-08-16T01:35:54.091Z,60.83
2022-08-16T01:36:11.914Z,60.96
2022-08-16T01:36:26.485Z,60.83
2022-08-16T01:36:38.760Z,60.71
2022-08-16T01:36:58.593Z,60.83
2022-08-16T01:37:13.174Z,61.01
2022-08-16T01:37:35.731Z,60.90
2022-08-16T01:37:54.676Z,60.82
2022-08-16T01:38:19.596Z,61.11
2022-08-16T01:38:38.001Z,60.87
2022-08-16T01:38:56.936Z,60.81
2022-08-16T01:39:15.323Z,60.80
2022-08-16T01:39:27.341Z,61.04
2022-08-16T01:39:39.910Z,61.09
2022-08-16T01:39:55.007Z,61.04
2022-08-16T01:40:07.832Z,60.74
2022-08-16T01:40:27.250Z,60.87
2022-08-16T01:40:39.218Z,60.87
2022-08-16T01:40:56.780Z,60.74
2022-08-16T01:41:30.491Z,60.75
2022-08-16T01:41:44.491Z,60.50
2022-08-16T01:41:57.407Z,60.60
2022-08-16T01:42:12.967Z,60.76
2022-08-16T01:42:25.382Z,60.71
2022-08-16T01:42:37.530Z,60.87
2022-08-16T01:42:55.874Z,61.09
2022-08-16T01:43:08.234Z,60.81
2022-08-16T01:43:23.606Z,60.69
2022-08-16T01:43:38.297Z,60.63
2022-08-16T01:43:53.947Z,60.79
2022-08-16T01:44:06.701Z,60.72
2022-08-16T01:44:18.820Z,60.88
2022-08-16T01:44:37.527Z,61.08
2022-08-16T01:44:50.242Z,61.03
2022-08-16T01:45:05.542Z,60.90
2022-08-16T01:45:19.646Z,60.78
2022-08-16T01:45:40.777Z,61.02
2022-08-16T01:45:57.706Z,60.95
2022-08-16T01:46:44.090Z,61.21
2022-08-16T01:46:57.505Z,61.12
2022-08-16T01:47:10.473Z,61.11
2022-08-16T01:47:23.579Z,61.37
2022-08-16T01:47:38.835Z,60.90
2022-08-16T01:48:01.981Z,60.80
2022-08-16T01:48:33.002Z,60.63
2022-08-16T01:48:48.345Z,60.75
2022-08-16T01:49:06.626Z,60.89
2022-08-16T01:49:43.086Z,60.74
2022-08-16T01:50:41.939Z,62.57
2022-08-16T01:50:42.631Z,61.54
2022-08-16T01:51:09.281Z,62.61
2022-08-16T01:51:29.952Z,62.98
2022-08-16T01:51:44.114Z,62.37
2022-08-16T01:52:28.271Z,61.60
2022-08-16T01:52:46.552Z,61.90
2022-08-16T01:52:58.726Z,62.58
2022-08-16T01:53:11.036Z,64.43
2022-08-16T01:53:23.941Z,64.69
2022-08-16T01:53:36.313Z,64.67
2022-08-16T01:53:55.372Z,64.21
2022-08-16T01:54:08.134Z,63.81
2022-08-16T01:54:31.143Z,63.75
2022-08-16T01:54:43.461Z,63.47
2022-08-16T01:54:57.702Z,63.40
2022-08-16T01:55:10.455Z,63.21
2022-08-16T01:55:24.302Z,62.99
2022-08-16T01:55:36.386Z,63.23
2022-08-16T01:55:54.098Z,62.90
2022-08-16T01:56:06.427Z,62.73
2022-08-16T01:56:23.474Z,62.68
2022-08-16T01:56:37.683Z,62.45
2022-08-16T01:56:49.630Z,62.47
2022-08-16T01:57:03.805Z,63.76
2022-08-16T01:57:16.482Z,64.32
2022-08-16T01:57:35.705Z,64.67
2022-08-16T01:57:53.557Z,64.80
2022-08-16T01:58:10.856Z,64.92
2022-08-16T01:58:25.532Z,64.15
2022-08-16T01:58:37.612Z,63.79
2022-08-16T01:59:02.103Z,63.49
2022-08-16T01:59:16.981Z,63.21
2022-08-16T01:59:33.557Z,63.01
2022-08-16T01:59:46.078Z,62.89
2022-08-16T01:59:59.478Z,63.12
2022-08-16T02:00:19.441Z,63.39
2022-08-16T02:00:31.812Z,63.71
2022-08-16T02:00:44.859Z,64.41
2022-08-16T02:00:59.039Z,64.29
2022-08-16T02:01:11.350Z,64.17
2022-08-16T02:01:23.585Z,63.95
2022-08-16T02:01:38.605Z,63.81
2022-08-16T02:01:59.617Z,63.84
2022-08-16T02:02:27.473Z,63.93
2022-08-16T02:02:42.605Z,63.82
2022-08-16T02:02:54.731Z,63.68
2022-08-16T02:03:07.466Z,63.63
2022-08-16T02:03:26.682Z,63.63
2022-08-16T02:03:40.055Z,63.43
2022-08-16T02:03:52.095Z,63.40
2022-08-16T02:04:10.987Z,64.00
2022-08-16T02:04:49.709Z,64.73
2022-08-16T02:05:00.034Z,65.11
2022-08-16T02:05:13.703Z,65.08
2022-08-16T02:05:25.924Z,65.03
2022-08-16T02:05:46.653Z,64.92
2022-08-16T02:06:04.286Z,64.61
2022-08-16T02:06:33.775Z,64.45
2022-08-16T02:06:47.183Z,63.91
2022-08-16T02:07:00.484Z,63.96
2022-08-16T02:07:13.217Z,63.83
2022-08-16T02:07:25.516Z,64.19
2022-08-16T02:07:39.024Z,63.98
2022-08-16T02:07:57.031Z,63.94
2022-08-16T02:08:09.567Z,64.10
2022-08-16T02:08:42.060Z,64.16
2022-08-16T02:08:55.075Z,64.15
2022-08-16T02:09:11.759Z,64.27
2022-08-16T02:09:25.481Z,64.19
2022-08-16T02:09:57.355Z,64.24
2022-08-16T02:10:11.241Z,64.08
2022-08-16T02:10:23.983Z,64.26
2022-08-16T02:10:38.331Z,64.33
2022-08-16T02:10:54.555Z,64.13
2022-08-16T02:11:08.640Z,64.13
2022-08-16T02:11:22.527Z,64.06
2022-08-16T02:11:47.809Z,63.99
2022-08-16T02:12:40.115Z,63.98
2022-08-16T02:12:52.589Z,63.58
2022-08-16T02:13:08.038Z,63.61
2022-08-16T02:13:21.531Z,63.61
2022-08-16T02:13:41.635Z,63.71
2022-08-16T02:13:55.237Z,63.41
2022-08-16T02:14:07.257Z,63.44
2022-08-16T02:14:30.956Z,63.67
2022-08-16T02:14:43.323Z,63.50
2022-08-16T02:14:56.119Z,63.65
2022-08-16T02:15:09.761Z,63.38
2022-08-16T02:15:25.931Z,63.45
2022-08-16T02:15:43.041Z,63.36
2022-08-16T02:15:55.970Z,63.35
2022-08-16T02:16:18.758Z,63.27
2022-08-16T02:16:31.041Z,63.29
2022-08-16T02:16:44.586Z,63.32
2022-08-16T02:17:01.559Z,63.44
2022-08-16T02:17:14.571Z,63.29
2022-08-16T02:17:28.411Z,63.35
2022-08-16T02:17:40.684Z,63.25
2022-08-16T02:17:57.379Z,63.00
2022-08-16T02:18:12.809Z,62.96
2022-08-16T02:18:24.927Z,63.03
2022-08-16T02:18:38.147Z,62.96
2022-08-16T02:18:53.119Z,62.97
2022-08-16T02:19:05.350Z,63.02
2022-08-16T02:19:59.561Z,62.66
2022-08-16T02:20:04.059Z,62.60
2022-08-16T02:20:26.395Z,62.71
2022-08-16T02:20:42.550Z,62.40
2022-08-16T02:20:57.322Z,62.92
2022-08-16T02:21:13.326Z,62.86
2022-08-16T02:21:31.623Z,62.71
2022-08-16T02:22:08.688Z,62.62
2022-08-16T02:22:34.324Z,62.56
2022-08-16T02:22:49.106Z,62.46
2022-08-16T02:23:01.570Z,62.45
2022-08-16T02:23:14.249Z,62.46
2022-08-16T02:23:29.648Z,62.45
2022-08-16T02:23:41.960Z,62.58
2022-08-16T02:23:55.829Z,62.55
2022-08-16T02:24:32.442Z,62.53
2022-08-16T02:24:42.248Z,62.62
2022-08-16T02:24:57.957Z,62.61
2022-08-16T02:25:14.748Z,62.61
2022-08-16T02:25:50.914Z,62.85
2022-08-16T02:26:00.250Z,62.71
2022-08-16T02:26:16.989Z,62.83
2022-08-16T02:26:34.379Z,62.98
2022-08-16T02:26:46.463Z,63.34
2022-08-16T02:27:02.180Z,62.88
2022-08-16T02:27:17.723Z,62.61
2022-08-16T02:27:31.012Z,62.54
2022-08-16T02:27:50.873Z,62.64
2022-08-16T02:28:03.706Z,62.63
2022-08-16T02:28:19.125Z,62.55
2022-08-16T02:28:32.834Z,62.48
2022-08-16T02:28:47.218Z,62.34
2022-08-16T02:28:59.397Z,62.25
2022-08-16T02:29:14.040Z,62.35
2022-08-16T02:29:32.144Z,62.26
2022-08-16T02:29:44.353Z,62.25
2022-08-16T02:30:05.314Z,62.30
2022-08-16T02:30:37.403Z,62.45
2022-08-16T02:30:56.743Z,62.11
2022-08-16T02:31:12.404Z,62.12
2022-08-16T02:32:04.069Z,62.08
2022-08-16T02:32:04.571Z,62.09
2022-08-16T02:32:49.932Z,62.13
2022-08-16T02:33:00.660Z,62.58
2022-08-16T02:33:15.509Z,63.00
2022-08-16T02:33:43.432Z,62.95
2022-08-16T02:33:56.719Z,63.13
2022-08-16T02:34:08.659Z,63.24
2022-08-16T02:34:34.713Z,63.12
2022-08-16T02:34:52.592Z,63.56
2022-08-16T02:35:09.193Z,63.68
2022-08-16T02:35:23.707Z,63.54
2022-08-16T02:35:54.434Z,63.36
2022-08-16T02:36:14.111Z,63.60
2022-08-16T02:36:48.033Z,63.56
2022-08-16T02:36:58.611Z,63.44
2022-08-16T02:37:11.284Z,63.36
2022-08-16T02:37:23.301Z,63.23
2022-08-16T02:37:51.556Z,63.00
2022-08-16T02:38:08.833Z,63.04
2022-08-16T02:38:21.226Z,63.30
2022-08-16T02:38:33.547Z,63.74
2022-08-16T02:38:45.467Z,63.44
2022-08-16T02:38:58.315Z,63.65
2022-08-16T02:39:12.791Z,63.37
2022-08-16T02:39:27.002Z,63.11
2022-08-16T02:39:42.234Z,62.97
2022-08-16T02:39:54.433Z,63.16
2022-08-16T02:40:07.998Z,63.00
2022-08-16T02:40:22.413Z,62.98
2022-08-16T02:40:34.347Z,62.99
2022-08-16T02:40:46.376Z,62.71
2022-08-16T02:40:59.465Z,62.88
2022-08-16T02:41:12.138Z,62.75
2022-08-16T02:41:24.562Z,62.80
2022-08-16T02:41:41.386Z,62.71
2022-08-16T02:41:53.676Z,62.84
2022-08-16T02:42:06.200Z,63.04
2022-08-16T02:42:19.408Z,63.10
2022-08-16T02:42:31.791Z,63.16
2022-08-16T02:42:45.665Z,63.21
2022-08-16T02:43:01.709Z,63.11
2022-08-16T02:43:15.031Z,63.08
2022-08-16T02:43:33.129Z,63.02
2022-08-16T02:43:45.627Z,62.97
2022-08-16T02:43:58.946Z,63.07
2022-08-16T02:44:13.875Z,63.25
2022-08-16T02:44:26.796Z,63.17
2022-08-16T02:44:39.091Z,63.22
2022-08-16T02:44:54.390Z,63.47
2022-08-16T02:45:06.841Z,63.58
2022-08-16T02:45:27.830Z,63.78
2022-08-16T02:45:41.177Z,63.79
2022-08-16T02:45:53.379Z,63.92
2022-08-16T02:46:07.622Z,63.95
2022-08-16T02:46:20.072Z,63.90
2022-08-16T02:46:50.360Z,64.04
2022-08-16T02:47:02.758Z,63.89
2022-08-16T02:47:25.044Z,63.90
2022-08-16T02:48:00.468Z,63.52
2022-08-16T02:48:30.312Z,63.46
2022-08-16T02:48:47.438Z,63.58
2022-08-16T02:49:01.980Z,63.38
2022-08-16T02:49:14.341Z,63.30
2022-08-16T02:49:58.224Z,63.63
2022-08-16T02:50:54.152Z,64.03
2022-08-16T02:50:54.531Z,63.78
2022-08-16T02:51:11.417Z,63.71
2022-08-16T02:51:23.792Z,63.61
2022-08-16T02:51:38.005Z,63.65
2022-08-16T02:51:53.099Z,63.68
2022-08-16T02:52:05.114Z,63.83
2022-08-16T02:52:29.152Z,63.90
2022-08-16T02:52:43.749Z,63.64
2022-08-16T02:52:55.961Z,63.87
2022-08-16T02:53:08.095Z,63.73
2022-08-16T02:53:23.290Z,63.71
2022-08-16T02:53:37.443Z,63.70
2022-08-16T02:53:49.736Z,63.79
2022-08-16T02:54:01.744Z,63.79
2022-08-16T02:54:16.875Z,63.68
2022-08-16T02:54:29.093Z,63.82
2022-08-16T02:54:41.257Z,63.91
2022-08-16T02:54:55.525Z,63.91
2022-08-16T02:55:08.312Z,63.97
2022-08-16T02:55:40.725Z,63.84
2022-08-16T02:55:53.826Z,63.81
2022-08-16T02:56:06.401Z,63.77
2022-08-16T02:56:22.743Z,63.58
2022-08-16T02:56:35.752Z,63.86
2022-08-16T02:56:49.086Z,63.79
2022-08-16T02:57:01.658Z,63.79
2022-08-16T02:57:13.774Z,63.90
2022-08-16T02:57:26.054Z,63.92
2022-08-16T02:57:42.367Z,63.97
2022-08-16T02:58:05.951Z,63.94
2022-08-16T02:58:20.158Z,64.00
2022-08-16T02:58:37.721Z,63.59
2022-08-16T02:58:52.659Z,63.57
2022-08-16T02:59:11.761Z,63.53
2022-08-16T02:59:27.401Z,63.54
2022-08-16T02:59:51.848Z,63.65
2022-08-16T03:00:33.548Z,63.14
2022-08-16T03:00:45.624Z,63.37
2022-08-16T03:01:02.400Z,63.49
2022-08-16T03:01:25.389Z,63.38
2022-08-16T03:01:49.702Z,63.73
2022-08-16T03:02:01.784Z,63.63
2022-08-16T03:02:20.872Z,63.79
2022-08-16T03:02:45.242Z,63.56
2022-08-16T03:02:57.622Z,63.70
2022-08-16T03:03:11.238Z,63.66
2022-08-16T03:04:28.909Z,64.02
2022-08-16T03:04:41.351Z,63.93
2022-08-16T03:04:50.601Z,63.91
2022-08-16T03:05:05.349Z,63.79
2022-08-16T03:05:17.320Z,63.88
2022-08-16T03:05:31.045Z,63.87
2022-08-16T03:05:43.808Z,63.67
2022-08-16T03:06:01.914Z,63.96
2022-08-16T03:06:36.389Z,63.98
2022-08-16T03:06:46.376Z,63.93
2022-08-16T03:06:58.375Z,63.89
2022-08-16T03:07:11.501Z,63.92
2022-08-16T03:07:27.632Z,63.94
2022-08-16T03:07:40.820Z,64.03
2022-08-16T03:08:03.098Z,63.93
2022-08-16T03:08:52.208Z,64.39
2022-08-16T03:08:52.677Z,64.07
2022-08-16T03:09:05.416Z,63.95
2022-08-16T03:09:18.023Z,64.21
2022-08-16T03:09:33.255Z,64.21
2022-08-16T03:09:45.883Z,64.10
2022-08-16T03:10:00.725Z,64.03
2022-08-16T03:10:14.016Z,63.86
2022-08-16T03:10:33.227Z,64.02
2022-08-16T03:10:48.498Z,63.70
2022-08-16T03:11:00.759Z,63.64
2022-08-16T03:11:17.875Z,63.69
2022-08-16T03:11:35.377Z,63.65
2022-08-16T03:11:47.634Z,63.34
2022-08-16T03:12:00.989Z,63.63
2022-08-16T03:12:16.284Z,63.64
2022-08-16T03:12:30.372Z,63.62
2022-08-16T03:12:56.365Z,63.76
2022-08-16T03:13:12.551Z,63.64
2022-08-16T03:13:24.882Z,63.63
2022-08-16T03:13:40.347Z,63.28
2022-08-16T03:13:56.588Z,63.46
2022-08-16T03:14:08.942Z,63.42
2022-08-16T03:14:24.797Z,63.30
2022-08-16T03:14:37.063Z,63.46
2022-08-16T03:14:50.231Z,63.41
2022-08-16T03:15:02.183Z,63.25
2022-08-16T03:15:14.461Z,63.46
2022-08-16T03:15:30.100Z,63.70
2022-08-16T03:15:42.255Z,63.66
2022-08-16T03:15:54.850Z,63.70
2022-08-16T03:16:07.650Z,63.65
2022-08-16T03:16:58.873Z,63.71
2022-08-16T03:17:12.131Z,63.64
2022-08-16T03:17:24.126Z,63.54
2022-08-16T03:17:53.350Z,63.33
2022-08-16T03:18:12.446Z,63.28
2022-08-16T03:18:40.352Z,63.72
2022-08-16T03:18:53.496Z,63.55
2022-08-16T03:19:06.755Z,63.55
2022-08-16T03:19:19.743Z,63.22
2022-08-16T03:19:46.848Z,62.84
2022-08-16T03:20:02.826Z,62.82
2022-08-16T03:20:16.277Z,62.75
2022-08-16T03:20:32.278Z,62.74
2022-08-16T03:20:46.501Z,62.68
2022-08-16T03:21:10.142Z,62.78
2022-08-16T03:21:25.356Z,62.73
2022-08-16T03:21:38.732Z,62.75
2022-08-16T03:21:51.893Z,62.84
2022-08-16T03:22:04.093Z,62.81
2022-08-16T03:22:19.403Z,62.71
2022-08-16T03:22:40.149Z,62.65
2022-08-16T03:22:57.352Z,62.77
2022-08-16T03:23:10.374Z,62.67
2022-08-16T03:23:27.213Z,62.68
2022-08-16T03:23:48.246Z,62.56
2022-08-16T03:24:00.238Z,62.55
2022-08-16T03:24:28.550Z,62.74
2022-08-16T03:24:41.676Z,63.07
2022-08-16T03:25:00.906Z,63.36
2022-08-16T03:25:15.532Z,63.44
2022-08-16T03:25:43.931Z,63.39
2022-08-16T03:25:56.394Z,63.56
2022-08-16T03:26:09.310Z,63.57
2022-08-16T03:26:21.330Z,63.38
2022-08-16T03:26:36.463Z,63.29
2022-08-16T03:26:48.537Z,63.42
2022-08-16T03:27:03.803Z,63.69
2022-08-16T03:27:19.051Z,63.78
2022-08-16T03:27:32.907Z,63.63
2022-08-16T03:27:45.326Z,63.30
2022-08-16T03:27:59.885Z,63.69
2022-08-16T03:28:11.990Z,63.51
2022-08-16T03:28:25.189Z,63.37
2022-08-16T03:28:37.652Z,63.41
2022-08-16T03:28:50.196Z,63.22
2022-08-16T03:29:02.463Z,63.23
2022-08-16T03:29:14.414Z,63.10
2022-08-16T03:29:30.349Z,63.17
2022-08-16T03:29:42.750Z,63.17
2022-08-16T03:30:16.192Z,63.57
2022-08-16T03:30:32.051Z,63.26
2022-08-16T03:30:44.157Z,63.21
2022-08-16T03:30:56.139Z,63.32
2022-08-16T03:31:08.660Z,63.31
2022-08-16T03:31:20.612Z,63.41
2022-08-16T03:31:34.670Z,63.04
2022-08-16T03:31:52.762Z,63.15
2022-08-16T03:32:05.398Z,63.06
2022-08-16T03:32:17.449Z,63.08
2022-08-16T03:32:31.803Z,63.10
2022-08-16T03:32:47.298Z,63.18
2022-08-16T03:32:59.768Z,63.29
2022-08-16T03:33:12.325Z,63.19
2022-08-16T03:33:24.354Z,63.20
2022-08-16T03:33:36.325Z,63.32
2022-08-16T03:33:48.238Z,63.38
2022-08-16T03:34:04.646Z,63.42
2022-08-16T03:34:16.728Z,63.61
2022-08-16T03:34:30.967Z,63.71
2022-08-16T03:34:42.887Z,63.77
2022-08-16T03:35:02.081Z,64.06
2022-08-16T03:35:17.790Z,64.36
2022-08-16T03:35:34.122Z,64.54
2022-08-16T03:35:46.616Z,64.53
2022-08-16T03:36:30.261Z,64.24
2022-08-16T03:36:32.744Z,64.66
2022-08-16T03:36:44.926Z,64.37
2022-08-16T03:36:57.887Z,64.52
2022-08-16T03:37:09.822Z,64.29
2022-08-16T03:37:21.839Z,64.41
2022-08-16T03:38:01.573Z,64.25
2022-08-16T03:38:34.055Z,64.19
2022-08-16T03:38:43.623Z,64.18
2022-08-16T03:38:56.325Z,64.12
2022-08-16T03:39:10.729Z,64.16
2022-08-16T03:39:27.748Z,64.33
2022-08-16T03:39:43.573Z,64.22
2022-08-16T03:39:56.755Z,64.05
2022-08-16T03:40:30.602Z,64.07
2022-08-16T03:40:45.535Z,64.39
2022-08-16T03:40:58.509Z,64.33
2022-08-16T03:41:24.493Z,64.47
2022-08-16T03:41:50.313Z,64.65
2022-08-16T03:42:03.715Z,64.46
2022-08-16T03:42:23.222Z,64.33
2022-08-16T03:42:35.579Z,64.43
2022-08-16T03:43:20.792Z,64.35
2022-08-16T03:43:51.255Z,64.57
2022-08-16T03:44:07.240Z,64.52
2022-08-16T03:44:44.615Z,64.25
2022-08-16T03:45:03.310Z,64.50
2022-08-16T03:45:15.686Z,64.68
2022-08-16T03:45:31.234Z,64.71
2022-08-16T03:45:43.762Z,64.61
2022-08-16T03:45:57.998Z,64.49
2022-08-16T03:46:10.651Z,64.71
2022-08-16T03:46:47.570Z,64.94
2022-08-16T03:46:55.748Z,64.85
2022-08-16T03:47:10.621Z,64.96
2022-08-16T03:47:22.590Z,65.02
2022-08-16T03:47:35.639Z,64.89
2022-08-16T03:47:47.879Z,64.89
2022-08-16T03:48:15.101Z,64.85